createdAt,value
2023-03-04T00:02:26.541Z,5.35
2023-03-04T00:04:53.731Z,5.40
2023-03-04T00:07:20.902Z,5.36
2023-03-04T00:09:48.328Z,5.22
2023-03-04T00:12:15.496Z,5.20
2023-03-04T00:14:42.633Z,5.29
2023-03-04T00:17:09.858Z,5.37
2023-03-04T00:19:37.142Z,5.39
2023-03-04T00:22:04.637Z,5.33
2023-03-04T00:24:32.077Z,5.33
2023-03-04T00:26:59.401Z,5.30
2023-03-04T00:29:26.890Z,5.48
2023-03-04T00:31:54.151Z,5.50
2023-03-04T00:34:22.081Z,5.48
2023-03-04T00:36:49.291Z,5.46
2023-03-04T00:39:17.754Z,5.46
2023-03-04T00:41:44.992Z,5.43
2023-03-04T00:44:12.622Z,5.36
2023-03-04T00:46:39.764Z,5.33
2023-03-04T00:49:07.182Z,5.32
2023-03-04T00:51:34.486Z,5.32
2023-03-04T00:54:01.759Z,5.29
2023-03-04T00:56:29.302Z,5.20
2023-03-04T00:58:56.543Z,5.12
2023-03-04T01:01:23.708Z,5.06
2023-03-04T01:03:51.991Z,4.92
2023-03-04T01:06:19.403Z,4.89
2023-03-04T01:08:46.640Z,4.93
2023-03-04T01:11:14.380Z,4.93
2023-03-04T01:13:41.539Z,4.88
2023-03-04T01:16:11.035Z,4.77
2023-03-04T01:18:38.648Z,4.79
2023-03-04T01:21:06.547Z,4.75
2023-03-04T01:23:33.710Z,4.64
2023-03-04T01:26:02.351Z,4.60
2023-03-04T01:28:29.691Z,4.44
2023-03-04T01:30:56.898Z,4.36
2023-03-04T01:33:24.233Z,4.33
2023-03-04T01:35:51.425Z,4.33
2023-03-04T01:38:18.735Z,4.34
2023-03-04T01:40:45.898Z,4.29
2023-03-04T01:43:20.149Z,4.19
2023-03-04T01:45:49.791Z,4.24
2023-03-04T01:48:20.738Z,4.19
2023-03-04T01:50:48.027Z,4.06
2023-03-04T01:53:24.532Z,3.99
2023-03-04T01:55:57.324Z,3.91
2023-03-04T01:58:30.840Z,3.89
2023-03-04T02:00:58.543Z,3.79
2023-03-04T02:03:25.772Z,3.84
2023-03-04T02:05:54.631Z,3.89
2023-03-04T02:08:23.373Z,3.91
2023-03-04T02:10:52.043Z,3.89
2023-03-04T02:13:19.275Z,3.93
2023-03-04T02:15:47.034Z,3.95
2023-03-04T02:18:22.776Z,3.85
2023-03-04T02:21:13.421Z,3.91
2023-03-04T02:23:47.160Z,3.86
2023-03-04T02:26:19.766Z,3.84
2023-03-04T02:28:52.094Z,3.86
2023-03-04T02:31:26.834Z,3.77
2023-03-04T02:33:58.353Z,3.86
2023-03-04T02:36:28.551Z,3.86
2023-03-04T02:39:21.160Z,3.96
2023-03-04T02:41:52.203Z,3.89
2023-03-04T02:44:23.643Z,3.84
2023-03-04T02:46:52.547Z,3.85
2023-03-04T02:49:21.739Z,3.71
2023-03-04T02:52:06.402Z,3.64
2023-03-04T02:54:34.394Z,3.61
2023-03-04T02:57:05.034Z,3.63
2023-03-04T02:59:36.264Z,3.63
2023-03-04T03:02:05.290Z,3.60
2023-03-04T03:04:35.913Z,3.67
2023-03-04T03:07:06.500Z,3.67
2023-03-04T03:09:33.977Z,3.57
2023-03-04T03:12:01.539Z,3.55
2023-03-04T03:14:30.919Z,3.44
2023-03-04T03:16:58.548Z,3.47
2023-03-04T03:19:25.780Z,3.45
2023-03-04T03:21:54.309Z,3.48
2023-03-04T03:24:21.509Z,3.54
2023-03-04T03:26:48.732Z,3.60
2023-03-04T03:29:15.943Z,3.61
2023-03-04T03:31:43.275Z,3.63
2023-03-04T03:34:10.435Z,3.63
2023-03-04T03:36:37.726Z,3.70
2023-03-04T03:39:05.466Z,3.75
2023-03-04T03:41:32.674Z,3.75
2023-03-04T03:43:59.869Z,3.70
2023-03-04T03:46:27.340Z,3.74
2023-03-04T03:48:54.520Z,3.74
2023-03-04T03:51:21.693Z,3.70
2023-03-04T03:53:48.998Z,3.71
2023-03-04T03:56:16.193Z,3.68
2023-03-04T03:58:43.323Z,3.74
2023-03-04T04:01:10.576Z,3.70
2023-03-04T04:03:37.803Z,3.75
2023-03-04T04:06:05.204Z,3.70
2023-03-04T04:08:33.455Z,3.68
2023-03-04T04:11:00.680Z,3.68
2023-03-04T04:13:27.881Z,3.61
2023-03-04T04:15:55.072Z,3.57
2023-03-04T04:18:23.880Z,3.54
2023-03-04T04:20:53.531Z,3.53
2023-03-04T04:23:20.729Z,3.48
2023-03-04T04:25:48.114Z,3.53
2023-03-04T04:28:15.311Z,3.51
2023-03-04T04:30:42.919Z,3.47
2023-03-04T04:33:10.428Z,3.44
2023-03-04T04:35:41.244Z,3.47
2023-03-04T04:38:09.522Z,3.44
2023-03-04T04:40:37.204Z,3.34
2023-03-04T04:43:04.793Z,3.40
2023-03-04T04:45:31.940Z,3.37
2023-03-04T04:47:59.116Z,3.36
2023-03-04T04:50:26.994Z,3.33
2023-03-04T04:52:54.168Z,3.22
2023-03-04T04:55:21.331Z,3.17
2023-03-04T04:57:48.520Z,3.10
2023-03-04T05:00:16.417Z,3.10
2023-03-04T05:02:43.527Z,3.06
2023-03-04T05:05:11.037Z,3.06
2023-03-04T05:07:38.230Z,3.06
2023-03-04T05:10:05.931Z,3.09
2023-03-04T05:12:33.068Z,3.07
2023-03-04T05:15:00.276Z,3.05
2023-03-04T05:17:28.298Z,2.99
2023-03-04T05:19:55.506Z,3.05
2023-03-04T05:22:22.624Z,3.09
2023-03-04T05:24:49.953Z,2.97
2023-03-04T05:27:17.102Z,2.86
2023-03-04T05:29:46.803Z,2.84
2023-03-04T05:32:14.089Z,2.86
2023-03-04T05:34:41.306Z,2.89
2023-03-04T05:37:08.438Z,2.99
2023-03-04T05:39:35.603Z,3.10
2023-03-04T05:42:02.748Z,3.15
2023-03-04T05:44:29.916Z,3.22
2023-03-04T05:46:57.088Z,3.30
2023-03-04T05:49:24.285Z,3.27
2023-03-04T05:51:51.507Z,3.24
2023-03-04T05:54:18.822Z,3.33
2023-03-04T05:56:45.939Z,3.37
2023-03-04T05:59:13.299Z,3.33
2023-03-04T06:01:40.571Z,3.38
2023-03-04T06:04:07.999Z,3.37
2023-03-04T06:06:35.142Z,3.43
2023-03-04T06:09:02.389Z,3.51
2023-03-04T06:11:29.915Z,3.53
2023-03-04T06:13:57.120Z,3.50
2023-03-04T06:16:24.278Z,3.57
2023-03-04T06:18:51.480Z,3.65
2023-03-04T06:21:18.591Z,3.74
2023-03-04T06:23:47.075Z,3.81
2023-03-04T06:26:15.692Z,3.85
2023-03-04T06:28:44.367Z,3.89
2023-03-04T06:31:11.724Z,3.86
2023-03-04T06:33:38.948Z,3.98
2023-03-04T06:36:06.669Z,4.02
2023-03-04T06:38:34.127Z,4.03
2023-03-04T06:41:09.238Z,4.10
2023-03-04T06:43:37.395Z,4.12
2023-03-04T06:46:06.095Z,4.24
2023-03-04T06:48:33.550Z,4.20
2023-03-04T06:51:11.647Z,4.34
2023-03-04T06:53:39.854Z,4.41
2023-03-04T06:56:08.767Z,4.50
2023-03-04T06:58:36.156Z,4.50
2023-03-04T07:01:24.397Z,4.65
2023-03-04T07:03:53.547Z,4.67
2023-03-04T07:06:23.769Z,4.79
2023-03-04T07:08:51.523Z,4.84
2023-03-04T07:11:19.061Z,4.95
2023-03-04T07:13:46.914Z,4.96
2023-03-04T07:16:17.874Z,5.02
2023-03-04T07:18:45.756Z,5.06
2023-03-04T07:21:14.486Z,5.12
2023-03-04T07:23:41.857Z,5.35
2023-03-04T07:26:09.071Z,5.47
2023-03-04T07:28:36.931Z,5.68
2023-03-04T07:31:24.880Z,5.58
2023-03-04T07:33:52.308Z,5.50
2023-03-04T07:36:20.071Z,5.50
2023-03-04T07:38:49.271Z,5.70
2023-03-04T07:41:17.649Z,5.75
2023-03-04T07:43:45.092Z,5.78
2023-03-04T07:46:12.464Z,5.90
2023-03-04T07:48:40.110Z,5.97
2023-03-04T07:51:19.796Z,6.16
2023-03-04T07:53:49.940Z,6.49
2023-03-04T07:56:20.569Z,7.22
2023-03-04T07:58:48.377Z,8.01
2023-03-04T08:01:21.663Z,8.94
2023-03-04T08:03:49.177Z,9.59
2023-03-04T08:06:19.092Z,10.25
2023-03-04T08:08:47.534Z,11.11
2023-03-04T08:11:21.107Z,11.78
2023-03-04T08:13:49.012Z,12.03
2023-03-04T08:16:19.030Z,12.25
2023-03-04T08:18:49.026Z,12.22
2023-03-04T08:21:21.053Z,12.55
2023-03-04T08:23:50.350Z,12.03
2023-03-04T08:26:28.022Z,12.99
2023-03-04T08:28:56.601Z,13.64
2023-03-04T08:31:24.130Z,13.53
2023-03-04T08:33:52.722Z,13.60
2023-03-04T08:36:20.689Z,13.80
2023-03-04T08:38:48.300Z,14.11
2023-03-04T08:41:15.814Z,13.88
2023-03-04T08:43:44.138Z,14.64
2023-03-04T08:46:11.649Z,14.57
2023-03-04T08:48:40.746Z,14.85
2023-03-04T08:51:13.641Z,15.43
2023-03-04T08:53:41.659Z,14.76
2023-03-04T08:56:10.069Z,15.62
2023-03-04T08:58:37.792Z,14.18
2023-03-04T09:01:07.541Z,14.87
2023-03-04T09:03:35.248Z,14.35
2023-03-04T09:06:03.838Z,14.79
2023-03-04T09:08:31.184Z,14.02
2023-03-04T09:10:58.591Z,14.45
2023-03-04T09:13:28.165Z,15.17
2023-03-04T09:15:55.900Z,15.24
2023-03-04T09:18:24.956Z,14.01
2023-03-04T09:20:52.927Z,15.10
2023-03-04T09:23:20.981Z,14.79
2023-03-04T09:25:49.617Z,15.14
2023-03-04T09:28:17.801Z,14.40
2023-03-04T09:30:45.152Z,14.73
2023-03-04T09:33:13.323Z,14.91
2023-03-04T09:35:40.742Z,14.56
2023-03-04T09:38:08.497Z,13.95
2023-03-04T09:40:48.234Z,13.74
2023-03-04T09:43:30.096Z,12.68
2023-03-04T09:46:00.964Z,12.40
2023-03-04T09:48:30.163Z,12.25
2023-03-04T09:51:03.660Z,11.75
2023-03-04T09:54:05.620Z,11.71
2023-03-04T09:56:38.758Z,11.58
2023-03-04T09:59:14.810Z,11.57
2023-03-04T10:01:48.689Z,11.41
2023-03-04T10:04:31.208Z,11.27
2023-03-04T10:06:59.021Z,10.95
2023-03-04T10:09:41.771Z,10.83
2023-03-04T10:12:20.012Z,11.04
2023-03-04T10:14:54.757Z,10.96
2023-03-04T10:17:38.320Z,11.06
2023-03-04T10:20:27.490Z,11.32
2023-03-04T10:23:00.003Z,11.04
2023-03-04T10:25:32.438Z,11.48
2023-03-04T10:28:09.608Z,11.34
2023-03-04T10:31:01.966Z,11.16
2023-03-04T10:33:37.031Z,11.02
2023-03-04T10:36:27.322Z,11.42
2023-03-04T10:38:58.264Z,11.27
2023-03-04T10:41:27.884Z,11.17
2023-03-04T10:44:00.904Z,11.06
2023-03-04T10:46:28.196Z,11.21
2023-03-04T10:48:55.718Z,11.37
2023-03-04T10:51:25.643Z,11.50
2023-03-04T10:54:10.850Z,11.38
2023-03-04T10:56:45.785Z,11.44
2023-03-04T10:59:41.093Z,11.26
2023-03-04T11:02:28.522Z,11.37
2023-03-04T11:05:20.302Z,11.44
2023-03-04T11:07:57.537Z,11.45
2023-03-04T11:10:37.234Z,11.31
2023-03-04T11:13:25.781Z,11.47
2023-03-04T11:16:05.867Z,11.48
2023-03-04T11:18:41.414Z,11.47
2023-03-04T11:21:17.423Z,11.14
2023-03-04T11:23:47.251Z,11.45
2023-03-04T11:26:21.565Z,11.35
2023-03-04T11:28:58.374Z,11.52
2023-03-04T11:31:53.043Z,11.34
2023-03-04T11:34:20.254Z,11.50
2023-03-04T11:37:06.255Z,11.65
2023-03-04T11:39:41.201Z,11.41
2023-03-04T11:42:23.520Z,11.42
2023-03-04T11:44:51.850Z,11.58
2023-03-04T11:47:34.126Z,11.74
2023-03-04T11:50:07.335Z,11.58
2023-03-04T11:53:14.641Z,11.58
2023-03-04T11:55:51.429Z,11.85
2023-03-04T11:58:55.749Z,11.85
2023-03-04T12:01:23.226Z,11.90
2023-03-04T12:04:07.648Z,12.10
2023-03-04T12:07:03.984Z,12.03
2023-03-04T12:09:37.380Z,11.88
2023-03-04T12:12:21.471Z,11.75
2023-03-04T12:15:01.033Z,11.83
2023-03-04T12:17:37.250Z,11.96
2023-03-04T12:20:24.026Z,12.10
2023-03-04T12:23:17.226Z,12.06
2023-03-04T12:25:50.348Z,11.88
2023-03-04T12:28:54.505Z,12.05
2023-03-04T12:31:36.728Z,11.90
2023-03-04T12:34:29.007Z,12.10
2023-03-04T12:37:40.102Z,12.07
2023-03-04T12:40:30.335Z,12.07
2023-03-04T12:43:26.536Z,12.19
2023-03-04T12:46:04.859Z,12.23
2023-03-04T12:48:33.185Z,12.09
2023-03-04T12:51:27.738Z,12.12
2023-03-04T12:54:00.896Z,12.02
2023-03-04T12:56:37.456Z,12.02
2023-03-04T12:59:07.898Z,11.90
2023-03-04T13:02:06.242Z,12.12
2023-03-04T13:04:59.644Z,12.15
2023-03-04T13:07:44.696Z,12.10
2023-03-04T13:10:16.301Z,12.33
2023-03-04T13:12:57.279Z,12.19
2023-03-04T13:15:24.697Z,12.20
2023-03-04T13:17:56.047Z,12.30
2023-03-04T13:20:42.853Z,12.33
2023-03-04T13:23:10.170Z,12.27
2023-03-04T13:25:55.651Z,12.17
2023-03-04T13:28:34.780Z,12.30
2023-03-04T13:31:13.200Z,12.26
2023-03-04T13:33:46.232Z,12.23
2023-03-04T13:36:54.987Z,12.30
2023-03-04T13:39:25.598Z,12.30
2023-03-04T13:41:55.377Z,12.16
2023-03-04T13:44:34.445Z,11.89
2023-03-04T13:47:41.802Z,11.99
2023-03-04T13:50:24.251Z,11.88
2023-03-04T13:52:52.077Z,11.95
2023-03-04T13:55:34.375Z,11.88
2023-03-04T13:58:13.430Z,11.79
2023-03-04T14:00:50.816Z,11.83
2023-03-04T14:03:30.411Z,11.85
2023-03-04T14:06:18.413Z,11.86
2023-03-04T14:08:47.488Z,11.88
2023-03-04T14:11:31.609Z,12.00
2023-03-04T14:14:00.668Z,11.96
2023-03-04T14:16:29.654Z,11.81
2023-03-04T14:18:59.119Z,11.86
2023-03-04T14:21:26.463Z,11.81
2023-03-04T14:24:02.048Z,11.83
2023-03-04T14:26:31.060Z,11.89
2023-03-04T14:28:59.774Z,11.90
2023-03-04T14:31:30.253Z,11.88
2023-03-04T14:34:02.330Z,11.89
2023-03-04T14:36:35.824Z,12.00
2023-03-04T14:39:06.814Z,11.86
2023-03-04T14:41:36.130Z,11.79
2023-03-04T14:44:18.170Z,11.79
2023-03-04T14:47:06.905Z,11.78
2023-03-04T14:49:39.564Z,11.88
2023-03-04T14:52:07.317Z,11.72
2023-03-04T14:54:40.675Z,11.74
2023-03-04T14:57:17.594Z,11.77
2023-03-04T14:59:45.711Z,11.64
2023-03-04T15:02:20.706Z,11.74
2023-03-04T15:04:48.668Z,11.65
2023-03-04T15:07:20.071Z,11.59
2023-03-04T15:09:55.544Z,11.51
2023-03-04T15:12:25.883Z,11.57
2023-03-04T15:14:56.740Z,11.59
2023-03-04T15:17:45.284Z,11.58
2023-03-04T15:20:23.346Z,11.64
2023-03-04T15:22:53.802Z,11.58
2023-03-04T15:25:21.305Z,11.42
2023-03-04T15:27:49.874Z,11.40
2023-03-04T15:30:24.135Z,11.35
2023-03-04T15:32:51.681Z,11.31
2023-03-04T15:35:19.527Z,11.26
2023-03-04T15:37:49.494Z,11.37
2023-03-04T15:40:27.521Z,11.35
2023-03-04T15:42:57.370Z,11.24
2023-03-04T15:45:30.930Z,11.26
2023-03-04T15:47:58.606Z,11.24
2023-03-04T15:50:28.908Z,11.20
2023-03-04T15:53:02.437Z,11.10
2023-03-04T15:55:31.435Z,11.17
2023-03-04T15:58:00.500Z,11.11
2023-03-04T16:00:27.944Z,11.09
2023-03-04T16:02:55.150Z,11.00
2023-03-04T16:05:22.379Z,10.96
2023-03-04T16:07:50.955Z,10.96
2023-03-04T16:10:28.179Z,10.83
2023-03-04T16:12:55.455Z,10.80
2023-03-04T16:15:28.744Z,10.75
2023-03-04T16:17:57.427Z,10.72
2023-03-04T16:20:28.606Z,10.68
2023-03-04T16:22:59.703Z,10.72
2023-03-04T16:25:27.635Z,10.59
2023-03-04T16:27:56.609Z,10.56
2023-03-04T16:30:26.844Z,10.42
2023-03-04T16:32:54.305Z,10.37
2023-03-04T16:35:25.253Z,10.41
2023-03-04T16:37:52.638Z,10.28
2023-03-04T16:40:23.766Z,10.30
2023-03-04T16:42:51.072Z,9.96
2023-03-04T16:45:20.498Z,9.98
2023-03-04T16:47:47.703Z,9.89
2023-03-04T16:50:18.089Z,9.96
2023-03-04T16:52:47.010Z,9.96
2023-03-04T16:55:19.835Z,9.93
2023-03-04T16:57:48.002Z,9.79
2023-03-04T17:00:18.186Z,9.72
2023-03-04T17:02:47.735Z,9.75
2023-03-04T17:05:19.761Z,9.72
2023-03-04T17:07:47.543Z,9.65
2023-03-04T17:10:16.088Z,9.49
2023-03-04T17:12:43.745Z,9.55
2023-03-04T17:15:13.686Z,9.52
2023-03-04T17:17:42.334Z,9.43
2023-03-04T17:20:13.289Z,9.43
2023-03-04T17:22:40.583Z,9.45
2023-03-04T17:25:08.378Z,9.41
2023-03-04T17:27:36.051Z,9.25
2023-03-04T17:30:06.874Z,9.10
2023-03-04T17:32:34.231Z,8.99
2023-03-04T17:35:01.533Z,8.96
2023-03-04T17:37:28.769Z,8.93
2023-03-04T17:39:55.914Z,8.81
2023-03-04T17:42:23.063Z,8.70
2023-03-04T17:44:50.303Z,8.69
2023-03-04T17:47:17.583Z,8.70
2023-03-04T17:49:44.798Z,8.67
2023-03-04T17:52:12.059Z,8.67
2023-03-04T17:54:39.286Z,8.67
2023-03-04T17:57:06.749Z,8.66
2023-03-04T17:59:33.927Z,8.59
2023-03-04T18:02:01.225Z,8.56
2023-03-04T18:04:28.428Z,8.56
2023-03-04T18:06:55.635Z,8.57
2023-03-04T18:09:22.767Z,8.55
2023-03-04T18:11:49.999Z,8.46
2023-03-04T18:14:17.121Z,8.50
2023-03-04T18:16:44.438Z,8.55
2023-03-04T18:19:11.686Z,8.48
2023-03-04T18:21:38.874Z,8.52
2023-03-04T18:24:07.031Z,8.45
2023-03-04T18:26:34.492Z,8.43
2023-03-04T18:29:01.801Z,8.39
2023-03-04T18:31:32.291Z,8.38
2023-03-04T18:34:04.145Z,8.36
2023-03-04T18:36:31.851Z,8.31
2023-03-04T18:38:59.723Z,8.26
2023-03-04T18:41:27.881Z,8.24
2023-03-04T18:43:55.388Z,8.11
2023-03-04T18:46:42.707Z,8.18
2023-03-04T18:49:11.855Z,8.16
2023-03-04T18:51:39.211Z,8.12
2023-03-04T18:54:06.487Z,8.12
2023-03-04T18:56:40.675Z,8.12
2023-03-04T18:59:13.328Z,8.11
2023-03-04T19:01:40.717Z,8.08
2023-03-04T19:04:08.312Z,8.05
2023-03-04T19:06:35.830Z,8.01
2023-03-04T19:09:04.550Z,8.01
2023-03-04T19:11:31.915Z,7.99
2023-03-04T19:13:59.130Z,8.09
2023-03-04T19:16:26.527Z,7.97
2023-03-04T19:18:53.678Z,7.90
2023-03-04T19:21:20.958Z,7.78
2023-03-04T19:23:48.123Z,7.78
2023-03-04T19:26:15.583Z,7.80
2023-03-04T19:28:42.783Z,7.71
2023-03-04T19:31:11.337Z,7.65
2023-03-04T19:33:39.924Z,7.56
2023-03-04T19:36:09.208Z,7.59
2023-03-04T19:38:36.514Z,7.60
2023-03-04T19:41:12.491Z,7.57
2023-03-04T19:43:40.037Z,7.56
2023-03-04T19:46:09.560Z,7.55
2023-03-04T19:48:37.844Z,7.43
2023-03-04T19:51:14.378Z,7.39
2023-03-04T19:53:41.942Z,7.30
2023-03-04T19:56:09.251Z,7.22
2023-03-04T19:58:36.934Z,7.19
2023-03-04T20:01:04.548Z,7.11
2023-03-04T20:03:31.835Z,7.09
2023-03-04T20:06:07.464Z,6.91
2023-03-04T20:08:38.288Z,6.98
2023-03-04T20:11:12.906Z,6.91
2023-03-04T20:13:40.139Z,6.81
2023-03-04T20:16:11.914Z,6.80
2023-03-04T20:18:39.982Z,6.83
2023-03-04T20:21:07.756Z,6.92
2023-03-04T20:23:35.841Z,6.84
2023-03-04T20:26:03.764Z,6.77
2023-03-04T20:28:31.887Z,6.76
2023-03-04T20:31:15.528Z,6.70
2023-03-04T20:33:43.842Z,6.58
2023-03-04T20:36:11.027Z,6.54
2023-03-04T20:38:38.213Z,6.49
2023-03-04T20:41:05.789Z,6.52
2023-03-04T20:43:33.002Z,6.61
2023-03-04T20:46:43.200Z,6.54
2023-03-04T20:49:22.177Z,6.49
2023-03-04T20:51:54.856Z,6.52
2023-03-04T20:54:22.090Z,6.40
2023-03-04T20:56:49.518Z,6.34
2023-03-04T20:59:17.160Z,6.43
2023-03-04T21:01:45.744Z,6.37
2023-03-04T21:04:13.118Z,6.33
2023-03-04T21:06:40.726Z,6.30
2023-03-04T21:09:11.571Z,6.22
2023-03-04T21:11:42.106Z,6.30
2023-03-04T21:14:21.955Z,6.40
2023-03-04T21:16:51.810Z,6.32
2023-03-04T21:19:21.982Z,6.39
2023-03-04T21:21:50.304Z,6.39
2023-03-04T21:24:20.126Z,6.36
2023-03-04T21:26:48.038Z,6.21
2023-03-04T21:29:17.184Z,6.15
2023-03-04T21:31:47.882Z,6.05
2023-03-04T21:34:19.098Z,6.05
2023-03-04T21:36:48.090Z,5.90
2023-03-04T21:39:17.097Z,5.99
2023-03-04T21:41:44.779Z,5.99
2023-03-04T21:44:22.577Z,5.97
2023-03-04T21:46:59.877Z,5.81
2023-03-04T21:49:27.364Z,5.93
2023-03-04T21:51:54.565Z,5.99
2023-03-04T21:54:21.799Z,5.81
2023-03-04T21:56:50.298Z,5.81
2023-03-04T21:59:17.610Z,5.84
2023-03-04T22:01:45.582Z,5.66
2023-03-04T22:04:12.995Z,5.57
2023-03-04T22:06:41.371Z,5.51
2023-03-04T22:09:09.609Z,5.60
2023-03-04T22:11:36.940Z,5.60
2023-03-04T22:14:04.260Z,5.57
2023-03-04T22:16:37.516Z,5.48
2023-03-04T22:19:07.373Z,5.53
2023-03-04T22:21:34.608Z,5.40
2023-03-04T22:24:01.767Z,5.48
2023-03-04T22:26:32.894Z,5.56
2023-03-04T22:29:01.549Z,5.51
2023-03-04T22:31:31.584Z,5.40
2023-03-04T22:34:01.724Z,5.40
2023-03-04T22:36:30.176Z,5.39
2023-03-04T22:38:57.407Z,5.48
2023-03-04T22:41:25.397Z,5.50
2023-03-04T22:43:52.744Z,5.25
2023-03-04T22:46:26.270Z,5.26
2023-03-04T22:48:56.147Z,5.26
2023-03-04T22:51:23.564Z,5.33
2023-03-04T22:53:51.817Z,5.20
2023-03-04T22:56:19.824Z,5.30
2023-03-04T22:58:48.154Z,5.11
2023-03-04T23:01:16.662Z,5.18
2023-03-04T23:03:45.048Z,4.99
2023-03-04T23:06:15.117Z,5.02
2023-03-04T23:08:44.972Z,4.93
2023-03-04T23:11:21.587Z,5.06
2023-03-04T23:13:50.015Z,5.11
2023-03-04T23:16:18.303Z,4.96
2023-03-04T23:18:47.305Z,4.92
2023-03-04T23:21:20.241Z,4.84
2023-03-04T23:23:48.282Z,4.88
2023-03-04T23:26:20.827Z,4.75
2023-03-04T23:28:48.755Z,4.65
2023-03-04T23:31:16.530Z,4.64
2023-03-04T23:33:45.780Z,4.53
2023-03-04T23:36:15.558Z,4.62
2023-03-04T23:38:44.483Z,4.79
2023-03-04T23:41:13.011Z,4.71
2023-03-04T23:43:40.297Z,4.71
2023-03-04T23:46:09.430Z,4.70
2023-03-04T23:48:36.667Z,4.50
2023-03-04T23:51:04.331Z,4.57
2023-03-04T23:53:34.405Z,4.65
2023-03-04T23:56:01.601Z,4.61
2023-03-04T23:58:28.759Z,4.49
